Edmonton International Airport

METAR CYEG TAF CYEG
-16 °C
°C
-
°C
35m
Alter
00:34:57
LT
23:34
UTC
0 ft

4.000

8.000

12.000

16.000

20.000

FEW 3.200
SCT 6.000
SCT 18.000
VFR
<?= Yii::t('app', 'Wind direction') ?> <?= Yii::t('app', 'of'); ?>
300°
17:09
Sonne unter
60%
Luftfeuchtigkeit
Windscherung
Geschlossen/Schnee
RWY-Sichtweite
RWY Zustand
Vert. Sichtweite
Min. Sichtbarkeit
CAVOK
Trend
Korrektur
Besonderer Bericht
30,45 inHg
QNH
METAR CYEG 282300Z 30012G21KT 20SM FEW032 SCT060 SCT180 M16/M22 A3045 RMK SC2SC1AC1 SLP380
Vereinzelte Wolken
12 kt
12 kt
16:00
VFR
18 kt
17:00
VFR
18 kt
18:00
VFR
18 kt
19:00
VFR
18 kt
20:00
VFR
18 kt
21:00
VFR
15 kt
22:00
VFR
15 kt
20 mi
Sichtweite
Keine
Wolkendecke
12-21 kt
Wind
metar-taf.com/CYEG

Metar-Taf.com

Visueller Decoder

Wir und Dritte verfolgen dein Internetverhalten auf unserer Website mit Cookies. Wenn du fortfährst, gehen wir davon aus, dass du mit unserer Cookie-Richtlinie einverstanden bist.